Aeroboteco Virtual Airline

Aeroboteco Virtual Airlines! Uma nuvem a frente.



 INFORMAÇÕES METEOROLÓGICAS
METAR FOR LEXJ
ADDS - METARS form results

(0946 UTC 16 January 2019)
Data provider http://aviationweather.gov/metar/data/
 
METAR text: LEXJ 160930Z 21008KT 9999 BKN027 08/06 Q1017
Conditions at: LEXJ (SANTANDER/PARAYA, ES) observed 0930 UTC 16 January 2019
Temperature: 8.0°C (46°F)
Dewpoint: 6.0°C (43°F) [RH = 87%]
Pressure (altimeter): 30.03 inches Hg (1017.0 mb)
Winds: from the SSW (210 degrees) at 9 MPH (8 knots; 4.1 m/s)
Visibility: 6 or more miles (10+ km)
Ceiling: 2700 feet AGL
Clouds: broken clouds at 2700 feet AGL
Weather: no significant weather observed at this time

METAR text: LEXJ 160900Z 19008KT 9999 BKN024 06/05 Q1017
Conditions at: LEXJ (SANTANDER/PARAYA, ES) observed 0900 UTC 16 January 2019
Temperature: 6.0°C (43°F)
Dewpoint: 5.0°C (41°F) [RH = 93%]
Pressure (altimeter): 30.03 inches Hg (1017.0 mb)
Winds: from the S (190 degrees) at 9 MPH (8 knots; 4.1 m/s)
Visibility: 6 or more miles (10+ km)
Ceiling: 2400 feet AGL
Clouds: broken clouds at 2400 feet AGL
Weather: no significant weather observed at this time

Forecast for: LEXJ (SANTANDER/PARAYA, ES)
Text: TAF LEXJ 160800Z 1609/1709 28007KT 9999 FEW030 TX12/1614Z TN07/1706Z
Forecast period: 0900 UTC 16 January 2019 to 0900 UTC 17 January 2019
Forecast type: FROM: standard forecast or significant change
Winds: from the W (280 degrees) at 8 MPH (7 knots; 3.6 m/s)
Visibility: 6 or more miles 10+ km)
Ceiling: at least 12,000 feet AGL
Clouds: few clouds at 3000 feet AGL
Weather: no significant weather forecast for this period
Text: TEMPO 1621/1709 3000 RA BKN010
Forecast period: 2100 UTC 16 January 2019 to 0900 UTC 17 January 2019
Forecast type: TEMPORARY: The following changes expected for less than half the time period
Visibility: 1.86 miles (2.99 km)
Ceiling: 1000 feet AGL
Clouds: broken clouds at 1000 feet AGL
Weather: RA  (moderate rain)
Text: PROB40
Forecast period: 2100 UTC 16 January 2019 to 0800 UTC 17 January 2019
Forecast type: TEMPORARY: The following changes expected for less than half the time period
Visibility: 1.86 miles (2.99 km)
Ceiling: 1000 feet AGL
Clouds: broken clouds at 1000 feet AGL
Weather: -RA BR  (light rain, mist)

 MAPA DO AEROPORTO

 INFORMAÇÕES DA PISTA
Pista 11 Tamanho da pista 7612 ft Largura da pista 148 ft
Elevação da pista 11 ft Ranhura da pista 0 ft Proa da pista 110
Pista 29 Tamanho da pista 7612 ft Largura da pista 148 ft
Elevação da pista 12 ft Ranhura da pista 0 ft Proa da pista 290

 FREQUÊNCIAS DO AEROPORTO
Tipo APP Nome APP Frequência 118.375 MHZ
Tipo GND Nome GND Frequência 121.7 MHZ
Tipo TWR Nome TWR Frequência 118.1 MHZ

 AUXÍLIOS DE NAVEGAÇÃO PRÓXIMOS AO AEROPORTO
Tipo NDB Nome Santander Frequência 416 KHZ
Tipo VOR-DME Nome Santander Frequência 115300 KHZ